Lockwood, CA

2:55 AM PDT on August 21, 2014 (GMT -0700)
Ranchos Del Lago | Change Station
CLOSE
Current Station
Personal Weather Station
Location: Lake Nacimiento, CA
Elevation: 1000 ft
Nearby Weather Stations

Elev 1000 ft 35.75 °N, 121.02 °W | Updated 16 seconds ago

Clear
Clear
57.0 °F
Feels Like 57.0 °F
N
0.0
Wind Variable Wind from South
Gusts 0.0 mph

Today
High -- | Low -- °F
--% Chance of Precip.
Yesterday
High -- | Low -- °F
Precip. -- in
6:28 AM 7:46 PM
Waning Crescent, 15% visible
Pressure 29.92 in
Visibility 10.0 miles
Clouds Clear
Dew Point 49 °F
Humidity 75%
Rainfall 0.00 in
Snow Depth Not available.
UV 0 out of 12
Pollen 8.60 out of 12
Air Quality Not available.
Flu Activity Not available.
METAR KPRB 210853Z AUTO 27004KT 10SM CLR 16/12 A2994 RMK AO2 SLP130 T01560117 50002

More Conditions Fewer Conditions

Pressure 29.92 in
Visibility 10.0 miles
Clouds Clear
Dew Point 49 °F
Humidity 75%
Rainfall 0.00 in
Snow Depth Not available.
UV 0 out of 12
Pollen 8.60 out of 12
Air Quality Not available.
Flu Activity Not available.
METAR KPRB 210853Z AUTO 27004KT 10SM CLR 16/12 A2994 RMK AO2 SLP130 T01560117 50002

More Conditions Fewer Conditions

10-Day Weather Forecast

Almanac

Astronomy

Aug. 21, 2014 Rise Set
Actual Time 6:28 AM PDT 7:46 PM PDT
Civil Twilight 6:01 AM PDT 8:13 PM PDT
Nautical Twilight 5:29 AM PDT 8:45 PM PDT
Astronomical Twilight 4:55 AM PDT 9:18 PM PDT
Moon 3:06 AM PDT 5:16 PM PDT
Length of Visible Light 14h 12m
Length of Day
13h 18m
Tomorrow will be 2m 5s shorter.
Waning Crescent, 15% of the Moon is Illuminated
Today
Waning Crescent
Aug 25
New
Sep 2
First Quarter
Sep 8
Full
Sep 15
Last Quarter

Today's Extremes

State Highs State Lows

Community

WunderPhotos

Upload Photos

1,745,871 photos uploaded!

Nearby

Snow Depth

Station Depth Elevation
Leavitt Lake 1 in 9400 ft
Leavitt Meadows 1 in 7200 ft
Summit Meadow 0 in 9122 ft
Blue Lakes 0 in 8000 ft
Forestdale Creek 0 in 8029 ft

Earthquake Activity

City Distance Mag. Time & Date
King City, California 31 miles 2.7 10:26 PM PDT
2014-08-15
Kettleman City, California 65 miles 2.9 11:32 PM PDT
2014-08-14
King City, California 31 miles 2.9 8:01 PM PDT
2014-08-14
Mariposa, California 120 miles 2.5 4:54 AM PDT
2014-08-14
Minimum magnitude displayed is 2.5.

Coastal Water Temperatures

Place Temperature
Monterey, CA 62.1 °F
Port San Luis, CA 59.0 °F

Nearby Weather Stations